Time;durP1;ratioP1;P1;durP2;ratioP2;P2;SDS_P1;SDS_P2;PMS_P1;PMS_P2;Temp;Humidity;BMP_temperature;BMP_pressure;BME280_temperature;BME280_humidity;BME280_pressure;Samples;Min_cycle;Max_cycle;Signal;HPM_P1;HPM_P2
2022/01/20 00:00:32;;;;;;;16.55;7.57;;;;;;;;;;6271102;22;20027;-64
2022/01/20 00:03:00;;;;;;;17.17;11.32;;;;;;;;;;6272706;22;19996;-66
2022/01/20 00:05:55;;;;;;;17.02;9.77;;;;;;;;;;6272606;22;20046;-63
2022/01/20 00:27:35;;;;;;;10.25;5.10;;;;;;;;;;6274229;22;20053;-64
2022/01/20 00:33:15;;;;;;;8.30;4.40;;;;;;;;;;6279529;22;20081;-63
2022/01/20 00:37:14;;;;;;;9.70;5.18;;;;;;;;;;6273549;22;20046;-64
2022/01/20 00:38:12;;;;;;;;;;;;;;;;;;6274871;22;20031;-64
2022/01/20 00:40:38;;;;;;;7.95;4.25;;;;;;;;;;6273125;22;19925;-63
2022/01/20 00:43:04;;;;;;;9.65;4.78;;;;;;;;;;6273852;22;20007;-63
2022/01/20 00:45:30;;;;;;;13.45;4.65;;;;;;;;;;6273655;22;20007;-63
2022/01/20 00:47:56;;;;;;;9.85;4.20;;;;;;;;;;6274051;22;20087;-64
2022/01/20 00:50:22;;;;;;;8.95;4.35;;;;;;;;;;6273502;22;20023;-64
2022/01/20 00:52:48;;;;;;;10.90;4.75;;;;;;;;;;6274630;22;20015;-65
2022/01/20 00:55:15;;;;;;;17.45;5.63;;;;;;;;;;6279377;22;19995;-65
2022/01/20 00:57:41;;;;;;;9.02;5.38;;;;;;;;;;6278180;22;20000;-66
2022/01/20 01:00:08;;;;;;;15.48;8.68;;;;;;;;;;6275314;22;20323;-64
2022/01/20 01:02:35;;;;;;;23.45;12.45;;;;;;;;;;6273188;22;19999;-64
2022/01/20 01:05:01;;;;;;;17.10;8.25;;;;;;;;;;6272505;22;20494;-64
2022/01/20 01:07:48;;;;;;;17.30;9.02;;;;;;;;;;6273802;22;20431;-64
2022/01/20 01:10:17;;;;;;;13.35;8.27;;;;;;;;;;6274530;22;20014;-64
2022/01/20 01:12:55;;;;;;;9.88;7.03;;;;;;;;;;6272784;22;20078;-63
2022/01/20 01:15:26;;;;;;;15.32;6.07;;;;;;;;;;6274099;22;20031;-64
2022/01/20 01:23:28;;;;;;;12.18;4.57;;;;;;;;;;6214933;22;20006;-64
2022/01/20 01:25:57;;;;;;;10.10;4.93;;;;;;;;;;6271658;22;20016;-64
2022/01/20 01:28:27;;;;;;;7.40;4.55;;;;;;;;;;6273596;22;20057;-63
2022/01/20 01:33:30;;;;;;;10.38;5.00;;;;;;;;;;6275452;22;20027;-63
2022/01/20 01:35:57;;;;;;;14.57;5.22;;;;;;;;;;6274045;22;20007;-63
2022/01/20 01:38:35;;;;;;;12.43;5.25;;;;;;;;;;6272870;22;20007;-63
2022/01/20 01:41:02;;;;;;;11.07;4.60;;;;;;;;;;6274231;22;20327;-62
2022/01/20 01:43:31;;;;;;;12.82;4.40;;;;;;;;;;6272394;22;20387;-62
2022/01/20 01:45:57;;;;;;;16.50;5.03;;;;;;;;;;6272978;22;20482;-63
2022/01/20 01:48:23;;;;;;;8.55;4.18;;;;;;;;;;6273185;22;20035;-63
2022/01/20 01:50:49;;;;;;;13.55;4.55;;;;;;;;;;6274090;22;20311;-63
2022/01/20 01:53:16;;;;;;;7.85;3.67;;;;;;;;;;6272564;22;20003;-63
2022/01/20 01:55:42;;;;;;;8.43;3.80;;;;;;;;;;6273211;22;20430;-63
2022/01/20 01:58:09;;;;;;;7.03;3.72;;;;;;;;;;6272723;22;20794;-64
2022/01/20 02:00:35;;;;;;;7.90;3.92;;;;;;;;;;6273155;22;20307;-67
2022/01/20 02:03:01;;;;;;;10.75;4.45;;;;;;;;;;6272733;22;19999;-63
2022/01/20 02:05:29;;;;;;;10.70;3.92;;;;;;;;;;6273661;22;20118;-64
2022/01/20 02:18:54;;;;;;;5.35;3.42;;;;;;;;;;6271884;22;20103;-63
2022/01/20 02:21:20;;;;;;;8.70;4.35;;;;;;;;;;6272784;22;20007;-64
2022/01/20 02:23:47;;;;;;;8.73;3.58;;;;;;;;;;6273419;22;20023;-63
2022/01/20 02:26:13;;;;;;;6.32;3.83;;;;;;;;;;6273006;22;19999;-63
2022/01/20 02:28:39;;;;;;;9.18;4.88;;;;;;;;;;6273262;22;20330;-64
2022/01/20 02:31:06;;;;;;;10.38;4.32;;;;;;;;;;6271739;22;20004;-63
2022/01/20 02:33:32;;;;;;;12.75;4.10;;;;;;;;;;6272301;22;20026;-63
2022/01/20 02:36:02;;;;;;;7.38;3.17;;;;;;;;;;6271223;22;20003;-63
2022/01/20 02:38:35;;;;;;;8.77;3.88;;;;;;;;;;6273405;22;19995;-65
2022/01/20 02:46:33;;;;;;;4.63;3.38;;;;;;;;;;6271907;22;20099;-64
2022/01/20 02:48:59;;;;;;;7.13;3.15;;;;;;;;;;6272408;22;20632;-63
2022/01/20 02:51:25;;;;;;;9.43;3.50;;;;;;;;;;6272086;22;20000;-63
2022/01/20 02:53:52;;;;;;;9.18;3.50;;;;;;;;;;6273069;22;20038;-63
2022/01/20 02:56:18;;;;;;;8.07;3.65;;;;;;;;;;6272747;22;20057;-63
2022/01/20 02:58:44;;;;;;;13.77;3.95;;;;;;;;;;6273035;22;20007;-63
2022/01/20 03:01:10;;;;;;;9.00;3.88;;;;;;;;;;6272084;22;20034;-64
2022/01/20 03:03:36;;;;;;;7.60;4.05;;;;;;;;;;6271970;22;19995;-63
2022/01/20 03:06:04;;;;;;;10.35;3.75;;;;;;;;;;6272642;22;20004;-63
2022/01/20 03:08:30;;;;;;;12.02;4.13;;;;;;;;;;6273065;22;20074;-63
2022/01/20 03:10:56;;;;;;;7.10;3.13;;;;;;;;;;6272242;22;20003;-64
2022/01/20 03:13:22;;;;;;;6.28;3.28;;;;;;;;;;6272380;22;20018;-63
2022/01/20 03:15:48;;;;;;;4.80;4.22;;;;;;;;;;6271925;22;20346;-63
2022/01/20 03:18:15;;;;;;;8.55;3.63;;;;;;;;;;6272412;22;20045;-64
2022/01/20 03:20:41;;;;;;;11.43;2.95;;;;;;;;;;6272376;22;20397;-64
2022/01/20 03:23:07;;;;;;;6.45;3.03;;;;;;;;;;6273655;22;20075;-64
2022/01/20 03:25:33;;;;;;;10.00;3.60;;;;;;;;;;6271446;22;19999;-63
2022/01/20 03:27:59;;;;;;;7.78;3.10;;;;;;;;;;6273120;22;20082;-64
2022/01/20 03:30:26;;;;;;;8.98;3.65;;;;;;;;;;6271866;22;20465;-63
2022/01/20 03:32:52;;;;;;;10.95;3.80;;;;;;;;;;6271559;22;20094;-64
2022/01/20 03:35:18;;;;;;;6.10;3.55;;;;;;;;;;6272094;22;20007;-63
2022/01/20 03:37:45;;;;;;;8.75;3.90;;;;;;;;;;6272359;22;20015;-64
2022/01/20 03:40:11;;;;;;;7.82;4.57;;;;;;;;;;6271708;22;20000;-64
2022/01/20 03:42:38;;;;;;;8.75;4.00;;;;;;;;;;6271446;22;20004;-64
2022/01/20 03:45:05;;;;;;;10.13;5.05;;;;;;;;;;6271496;22;20000;-63
2022/01/20 03:47:31;;;;;;;10.05;4.65;;;;;;;;;;6272105;22;20079;-63
2022/01/20 03:52:26;;;;;;;13.57;4.78;;;;;;;;;;6271820;22;20073;-63
2022/01/20 03:54:53;;;;;;;14.07;5.78;;;;;;;;;;6272434;22;20027;-63
2022/01/20 03:57:19;;;;;;;10.45;5.18;;;;;;;;;;6271376;22;20004;-64
2022/01/20 03:59:45;;;;;;;9.65;3.95;;;;;;;;;;6272152;22;20057;-64
2022/01/20 04:02:11;;;;;;;14.38;5.72;;;;;;;;;;6271566;22;20501;-63
2022/01/20 04:04:38;;;;;;;9.93;4.55;;;;;;;;;;6272664;22;20350;-64
2022/01/20 04:07:04;;;;;;;7.35;3.72;;;;;;;;;;6271862;22;20045;-63
2022/01/20 04:09:30;;;;;;;6.78;4.03;;;;;;;;;;6271832;22;20004;-63
2022/01/20 04:11:56;;;;;;;8.98;3.72;;;;;;;;;;6271403;22;20014;-63
2022/01/20 04:14:24;;;;;;;12.38;4.80;;;;;;;;;;6271938;22;20004;-63
2022/01/20 04:19:24;;;;;;;7.78;4.03;;;;;;;;;;6271544;22;20015;-63
2022/01/20 04:21:50;;;;;;;13.98;4.50;;;;;;;;;;6270502;22;19996;-64
2022/01/20 04:24:17;;;;;;;8.15;3.85;;;;;;;;;;6272858;22;20323;-63
2022/01/20 04:26:44;;;;;;;9.93;4.40;;;;;;;;;;6271882;22;20007;-63
2022/01/20 04:29:13;;;;;;;10.85;3.72;;;;;;;;;;6272021;22;20003;-64
2022/01/20 04:31:41;;;;;;;8.15;4.00;;;;;;;;;;6271887;22;19999;-64
2022/01/20 04:34:08;;;;;;;7.25;4.10;;;;;;;;;;6272148;22;20027;-63
2022/01/20 04:36:38;;;;;;;11.90;4.38;;;;;;;;;;6271823;22;20082;-63
2022/01/20 04:39:06;;;;;;;9.60;4.38;;;;;;;;;;6271303;22;20082;-64
2022/01/20 04:41:32;;;;;;;8.13;3.83;;;;;;;;;;6269589;22;20482;-63
2022/01/20 04:43:58;;;;;;;11.88;3.90;;;;;;;;;;6271498;22;20378;-63
2022/01/20 04:46:36;;;;;;;12.23;4.13;;;;;;;;;;6272565;22;20000;-64
2022/01/20 04:59:42;;;;;;;8.90;4.35;;;;;;;;;;6280095;22;20500;-64
2022/01/20 05:02:08;;;;;;;9.43;3.75;;;;;;;;;;6274495;22;20083;-64
2022/01/20 05:04:35;;;;;;;11.27;4.30;;;;;;;;;;6273967;22;20347;-63
2022/01/20 05:07:01;;;;;;;9.02;4.18;;;;;;;;;;6273687;22;20078;-63
2022/01/20 05:09:27;;;;;;;7.72;3.70;;;;;;;;;;6273734;22;20004;-64
2022/01/20 05:12:15;;;;;;;5.47;3.75;;;;;;;;;;6273349;22;20004;-64
2022/01/20 05:14:41;;;;;;;11.40;4.95;;;;;;;;;;6273582;22;20023;-64
2022/01/20 05:17:07;;;;;;;8.48;3.83;;;;;;;;;;6273270;22;20254;-63
2022/01/20 05:19:33;;;;;;;8.32;4.68;;;;;;;;;;6273008;22;20028;-63
2022/01/20 05:22:00;;;;;;;10.75;4.18;;;;;;;;;;6274395;22;19996;-64
2022/01/20 05:24:26;;;;;;;8.98;3.70;;;;;;;;;;6273396;22;19996;-63
2022/01/20 05:26:54;;;;;;;10.57;4.28;;;;;;;;;;6273874;22;20004;-64
2022/01/20 05:29:20;;;;;;;6.28;3.70;;;;;;;;;;6271596;22;20011;-63
2022/01/20 05:31:46;;;;;;;10.55;4.45;;;;;;;;;;6273328;22;20003;-64
2022/01/20 05:34:12;;;;;;;9.50;3.95;;;;;;;;;;6272388;22;20061;-64
2022/01/20 05:36:39;;;;;;;8.65;3.78;;;;;;;;;;6273486;22;20353;-63
2022/01/20 05:39:05;;;;;;;8.75;3.80;;;;;;;;;;6273012;22;20000;-63
2022/01/20 05:41:31;;;;;;;10.85;4.55;;;;;;;;;;6272815;22;20004;-64
2022/01/20 05:43:58;;;;;;;9.32;4.10;;;;;;;;;;6274302;22;20534;-65
2022/01/20 05:46:27;;;;;;;9.55;3.65;;;;;;;;;;6272419;22;20061;-64
2022/01/20 05:48:57;;;;;;;7.25;3.60;;;;;;;;;;6272028;22;20330;-64
2022/01/20 05:51:23;;;;;;;10.32;3.92;;;;;;;;;;6273061;22;20004;-64
2022/01/20 05:53:49;;;;;;;9.30;4.15;;;;;;;;;;6272464;22;19999;-63
2022/01/20 05:56:15;;;;;;;9.38;4.47;;;;;;;;;;6273060;22;20035;-64
2022/01/20 05:58:41;;;;;;;6.25;3.60;;;;;;;;;;6273782;22;20023;-64
2022/01/20 06:01:08;;;;;;;5.80;3.65;;;;;;;;;;6273401;22;20000;-64
2022/01/20 06:03:37;;;;;;;8.65;4.07;;;;;;;;;;6273349;22;20014;-62
2022/01/20 06:06:07;;;;;;;9.82;3.90;;;;;;;;;;6273155;22;20103;-64
2022/01/20 06:08:34;;;;;;;8.48;4.15;;;;;;;;;;6274685;22;20003;-63
2022/01/20 06:11:00;;;;;;;7.63;3.47;;;;;;;;;;6273868;22;20014;-62
2022/01/20 06:13:26;;;;;;;10.45;3.60;;;;;;;;;;6272010;22;20003;-63
2022/01/20 06:15:53;;;;;;;7.80;3.88;;;;;;;;;;6271532;22;20334;-64
2022/01/20 06:18:19;;;;;;;8.23;4.13;;;;;;;;;;6273613;22;19996;-63
2022/01/20 06:20:45;;;;;;;8.27;4.38;;;;;;;;;;6272650;22;20422;-62
2022/01/20 06:23:12;;;;;;;13.32;4.38;;;;;;;;;;6273624;22;20000;-64
2022/01/20 06:25:38;;;;;;;8.27;4.10;;;;;;;;;;6273445;22;20046;-63
2022/01/20 06:28:04;;;;;;;6.63;3.72;;;;;;;;;;6272742;22;20003;-63
2022/01/20 06:30:31;;;;;;;9.63;4.00;;;;;;;;;;6269595;22;20051;-62
2022/01/20 06:32:58;;;;;;;7.05;3.88;;;;;;;;;;6272664;22;20451;-63
2022/01/20 06:35:24;;;;;;;13.48;4.90;;;;;;;;;;6274208;22;20071;-63
2022/01/20 06:37:52;;;;;;;8.18;4.25;;;;;;;;;;6272326;22;20020;-62
2022/01/20 06:40:18;;;;;;;11.90;5.47;;;;;;;;;;6273808;22;19996;-63
2022/01/20 06:42:45;;;;;;;7.30;4.85;;;;;;;;;;6270992;22;20000;-63
2022/01/20 06:45:12;;;;;;;9.43;4.72;;;;;;;;;;6271921;22;20046;-62
2022/01/20 06:47:38;;;;;;;11.32;4.90;;;;;;;;;;6271476;22;20459;-63
2022/01/20 06:50:06;;;;;;;11.02;4.78;;;;;;;;;;6273283;22;20062;-63
2022/01/20 06:52:32;;;;;;;11.25;4.10;;;;;;;;;;6273253;22;20007;-62
2022/01/20 06:55:00;;;;;;;11.23;4.82;;;;;;;;;;6272850;22;20011;-62
2022/01/20 06:57:26;;;;;;;11.43;4.90;;;;;;;;;;6272858;22;20050;-63
2022/01/20 06:59:52;;;;;;;7.80;4.40;;;;;;;;;;6271861;22;20073;-64
2022/01/20 07:02:18;;;;;;;8.57;4.97;;;;;;;;;;6273144;22;20052;-64
2022/01/20 07:04:46;;;;;;;13.85;4.38;;;;;;;;;;6273056;22;19995;-63
2022/01/20 07:07:12;;;;;;;8.35;4.15;;;;;;;;;;6272349;22;20035;-63
2022/01/20 07:09:39;;;;;;;8.30;4.40;;;;;;;;;;6273321;22;20489;-64
2022/01/20 07:12:05;;;;;;;11.98;4.78;;;;;;;;;;6271682;22;20047;-63
2022/01/20 07:14:31;;;;;;;7.93;4.05;;;;;;;;;;6272039;22;20089;-63
2022/01/20 07:16:58;;;;;;;9.20;4.20;;;;;;;;;;6270593;22;20095;-62
2022/01/20 07:19:24;;;;;;;12.60;4.75;;;;;;;;;;6273614;22;19999;-62
2022/01/20 07:21:50;;;;;;;9.15;5.95;;;;;;;;;;6271306;22;20004;-63
2022/01/20 07:24:17;;;;;;;11.68;4.72;;;;;;;;;;6272913;22;19999;-63
2022/01/20 07:26:43;;;;;;;13.70;6.10;;;;;;;;;;6271821;22;20534;-63
2022/01/20 07:29:09;;;;;;;13.57;4.45;;;;;;;;;;6272550;22;20011;-62
2022/01/20 07:31:35;;;;;;;9.38;5.00;;;;;;;;;;6270775;22;20034;-63
2022/01/20 07:34:02;;;;;;;10.48;5.38;;;;;;;;;;6272403;22;20019;-63
2022/01/20 07:36:28;;;;;;;9.57;4.50;;;;;;;;;;6272493;22;20011;-64
2022/01/20 07:38:54;;;;;;;11.13;4.15;;;;;;;;;;6272305;22;20004;-64
2022/01/20 07:41:20;;;;;;;9.75;4.50;;;;;;;;;;6272032;22;20067;-63
2022/01/20 07:43:46;;;;;;;9.43;4.90;;;;;;;;;;6271817;22;20003;-63
2022/01/20 07:46:12;;;;;;;26.02;6.70;;;;;;;;;;6270414;22;20027;-62
2022/01/20 07:48:38;;;;;;;9.50;4.68;;;;;;;;;;6272573;22;20007;-64
2022/01/20 07:51:08;;;;;;;9.10;5.28;;;;;;;;;;6271304;22;20290;-62
2022/01/20 07:53:34;;;;;;;10.35;4.70;;;;;;;;;;6271318;22;20445;-62
2022/01/20 07:56:01;;;;;;;9.50;5.38;;;;;;;;;;6271278;22;20133;-64
2022/01/20 07:58:27;;;;;;;5.95;3.58;;;;;;;;;;6272906;22;19995;-63
2022/01/20 08:00:53;;;;;;;9.15;4.38;;;;;;;;;;6272063;22;20038;-62
2022/01/20 08:03:19;;;;;;;11.30;5.70;;;;;;;;;;6272211;22;20334;-65
2022/01/20 08:05:45;;;;;;;10.95;4.55;;;;;;;;;;6271341;22;20334;-63
2022/01/20 08:08:11;;;;;;;10.30;4.55;;;;;;;;;;6271939;22;20010;-63
2022/01/20 08:10:37;;;;;;;9.32;4.32;;;;;;;;;;6271480;22;20003;-63
2022/01/20 08:13:04;;;;;;;12.75;5.25;;;;;;;;;;6270759;22;20004;-64
2022/01/20 08:15:30;;;;;;;15.35;7.32;;;;;;;;;;6270258;22;20003;-63
2022/01/20 08:17:56;;;;;;;18.98;9.30;;;;;;;;;;6269412;22;19999;-64
2022/01/20 08:20:22;;;;;;;14.15;8.23;;;;;;;;;;6269726;22;20015;-66
2022/01/20 08:22:49;;;;;;;13.98;6.82;;;;;;;;;;6267487;22;20453;-65
2022/01/20 08:25:16;;;;;;;18.60;5.70;;;;;;;;;;6267251;22;20086;-64
2022/01/20 08:27:43;;;;;;;13.02;5.45;;;;;;;;;;6269209;22;20118;-63
2022/01/20 08:30:12;;;;;;;8.55;5.03;;;;;;;;;;6271999;22;20004;-63
2022/01/20 08:32:38;;;;;;;16.08;7.13;;;;;;;;;;6270293;22;20335;-64
2022/01/20 08:35:06;;;;;;;7.47;5.20;;;;;;;;;;6269094;22;20073;-63
2022/01/20 08:37:37;;;;;;;16.13;5.35;;;;;;;;;;6267210;22;20430;-62
2022/01/20 08:40:13;;;;;;;10.13;5.15;;;;;;;;;;6267726;22;20077;-63
2022/01/20 08:42:40;;;;;;;12.18;4.45;;;;;;;;;;6267969;22;20142;-63
2022/01/20 08:45:07;;;;;;;8.07;4.28;;;;;;;;;;6268783;22;20004;-64
2022/01/20 08:47:34;;;;;;;6.85;3.83;;;;;;;;;;6266927;22;20373;-64
2022/01/20 08:50:00;;;;;;;7.00;4.00;;;;;;;;;;6269609;22;20099;-63
2022/01/20 08:52:28;;;;;;;10.60;4.40;;;;;;;;;;6267646;22;20014;-63
2022/01/20 08:54:57;;;;;;;11.05;5.50;;;;;;;;;;6268206;22;20035;-63
2022/01/20 08:57:24;;;;;;;13.95;6.65;;;;;;;;;;6267515;22;20004;-64
2022/01/20 08:59:50;;;;;;;9.52;5.03;;;;;;;;;;6266938;22;20335;-63
2022/01/20 09:02:16;;;;;;;8.60;4.25;;;;;;;;;;6267150;22;20361;-63
2022/01/20 09:04:42;;;;;;;13.93;5.00;;;;;;;;;;6265104;22;20037;-63
2022/01/20 09:07:08;;;;;;;5.65;4.03;;;;;;;;;;6267427;22;20003;-63
2022/01/20 09:09:40;;;;;;;9.25;4.43;;;;;;;;;;6263569;22;20651;-64
2022/01/20 09:17:21;;;;;;;6.93;4.15;;;;;;;;;;6265919;22;20088;-64
2022/01/20 09:19:47;;;;;;;14.60;6.70;;;;;;;;;;6266472;22;20006;-64
2022/01/20 09:22:13;;;;;;;9.73;5.30;;;;;;;;;;6267353;22;20011;-64
2022/01/20 09:24:40;;;;;;;13.85;7.68;;;;;;;;;;6267356;22;20749;-64
2022/01/20 09:27:06;;;;;;;20.42;5.72;;;;;;;;;;6265783;22;20012;-64
2022/01/20 09:29:32;;;;;;;15.00;5.20;;;;;;;;;;6267544;22;20015;-66
2022/01/20 09:31:59;;;;;;;8.85;4.47;;;;;;;;;;6268087;22;20401;-64
2022/01/20 09:34:25;;;;;;;9.73;4.03;;;;;;;;;;6267306;22;20003;-63
2022/01/20 09:36:52;;;;;;;10.63;6.38;;;;;;;;;;6267294;22;20014;-63
2022/01/20 09:39:18;;;;;;;8.45;4.80;;;;;;;;;;6266394;22;19996;-63
2022/01/20 09:41:45;;;;;;;6.38;3.70;;;;;;;;;;6266977;22;20003;-64
2022/01/20 09:44:11;;;;;;;9.60;3.97;;;;;;;;;;6265450;22;20003;-63
2022/01/20 09:46:38;;;;;;;12.45;3.58;;;;;;;;;;6265837;22;20681;-63
2022/01/20 09:49:04;;;;;;;6.53;3.50;;;;;;;;;;6267848;22;20426;-63
2022/01/20 09:51:30;;;;;;;6.45;3.20;;;;;;;;;;6265973;22;20007;-63
2022/01/20 09:53:56;;;;;;;10.88;4.50;;;;;;;;;;6265749;22;20414;-63
2022/01/20 09:56:23;;;;;;;7.43;3.85;;;;;;;;;;6265883;22;20082;-63
2022/01/20 09:58:50;;;;;;;8.73;3.38;;;;;;;;;;6264858;22;20083;-64
2022/01/20 10:01:33;;;;;;;8.55;3.85;;;;;;;;;;6266326;22;20045;-65
2022/01/20 10:04:00;;;;;;;8.73;4.53;;;;;;;;;;6266582;22;20000;-64
2022/01/20 10:06:26;;;;;;;7.85;4.05;;;;;;;;;;6266543;22;20004;-63
2022/01/20 10:08:59;;;;;;;9.65;4.43;;;;;;;;;;6266190;22;20010;-65
2022/01/20 10:11:25;;;;;;;8.55;4.88;;;;;;;;;;6267146;22;20011;-64
2022/01/20 10:13:51;;;;;;;12.40;4.38;;;;;;;;;;6266878;22;19999;-65
2022/01/20 10:16:17;;;;;;;10.18;4.82;;;;;;;;;;6265950;22;20056;-64
2022/01/20 10:18:53;;;;;;;10.40;4.55;;;;;;;;;;6266129;22;20000;-69
2022/01/20 10:21:27;;;;;;;7.38;4.63;;;;;;;;;;6266613;22;20004;-64
2022/01/20 10:23:53;;;;;;;9.80;5.00;;;;;;;;;;6263181;22;20075;-67
2022/01/20 10:26:20;;;;;;;9.40;4.13;;;;;;;;;;6263380;22;20007;-63
2022/01/20 10:28:54;;;;;;;8.38;4.88;;;;;;;;;;6266179;22;20080;-64
2022/01/20 10:31:39;;;;;;;9.60;4.90;;;;;;;;;;6265653;22;20062;-65
2022/01/20 10:34:07;;;;;;;14.00;7.90;;;;;;;;;;6265889;22;20015;-64
2022/01/20 10:36:39;;;;;;;8.00;5.82;;;;;;;;;;6265567;22;20010;-64
2022/01/20 10:39:05;;;;;;;9.30;4.32;;;;;;;;;;6267463;22;20004;-64
2022/01/20 10:41:31;;;;;;;9.75;4.28;;;;;;;;;;6266602;22;20461;-64
2022/01/20 10:44:01;;;;;;;8.90;4.55;;;;;;;;;;6266515;22;20389;-65
2022/01/20 10:46:27;;;;;;;10.90;5.25;;;;;;;;;;6266375;22;20004;-64
2022/01/20 10:49:01;;;;;;;9.63;5.82;;;;;;;;;;6266213;22;20348;-64
2022/01/20 10:51:28;;;;;;;10.30;6.10;;;;;;;;;;6263882;22;20471;-64
2022/01/20 10:54:08;;;;;;;8.95;5.82;;;;;;;;;;6265870;22;20014;-64
2022/01/20 10:56:51;;;;;;;12.05;5.35;;;;;;;;;;6266253;22;20008;-64
2022/01/20 10:59:17;;;;;;;14.07;5.78;;;;;;;;;;6265137;22;20003;-63
2022/01/20 11:01:43;;;;;;;9.18;4.13;;;;;;;;;;6265712;22;20007;-67
2022/01/20 11:04:10;;;;;;;11.95;4.82;;;;;;;;;;6265090;22;20000;-63
2022/01/20 11:06:37;;;;;;;11.60;6.95;;;;;;;;;;6264926;22;20086;-69
2022/01/20 11:09:06;;;;;;;14.00;7.15;;;;;;;;;;6266254;22;20039;-63
2022/01/20 11:11:34;;;;;;;15.00;8.88;;;;;;;;;;6264574;22;20007;-63
2022/01/20 11:14:00;;;;;;;11.95;5.75;;;;;;;;;;6267238;22;20011;-63
2022/01/20 11:16:27;;;;;;;7.93;4.90;;;;;;;;;;6264934;22;20011;-64
2022/01/20 11:18:53;;;;;;;11.93;5.85;;;;;;;;;;6266494;22;20007;-64
2022/01/20 11:21:23;;;;;;;14.05;6.68;;;;;;;;;;6265701;22;20007;-63
2022/01/20 11:23:49;;;;;;;10.88;5.05;;;;;;;;;;6265430;22;20548;-66
2022/01/20 11:26:15;;;;;;;9.80;4.88;;;;;;;;;;6264690;22;20034;-64
2022/01/20 11:28:41;;;;;;;14.77;7.03;;;;;;;;;;6265657;22;20057;-64
2022/01/20 11:31:09;;;;;;;10.07;5.25;;;;;;;;;;6265177;22;20015;-64
2022/01/20 11:33:40;;;;;;;6.35;5.15;;;;;;;;;;6265717;22;20019;-63
2022/01/20 11:36:08;;;;;;;13.02;7.90;;;;;;;;;;6265716;22;20246;-63
2022/01/20 11:38:47;;;;;;;12.82;5.30;;;;;;;;;;6265787;22;20010;-64
2022/01/20 11:41:16;;;;;;;6.72;4.13;;;;;;;;;;6265805;22;19996;-63
2022/01/20 11:43:45;;;;;;;7.60;4.70;;;;;;;;;;6265289;22;20042;-68
2022/01/20 11:46:13;;;;;;;12.10;4.70;;;;;;;;;;6266567;22;20027;-63
2022/01/20 11:48:58;;;;;;;11.50;4.97;;;;;;;;;;6264030;22;20177;-63
2022/01/20 11:51:25;;;;;;;10.70;3.92;;;;;;;;;;6266151;22;20003;-63
2022/01/20 11:53:55;;;;;;;12.55;4.22;;;;;;;;;;6265188;22;20008;-64
2022/01/20 11:56:28;;;;;;;10.15;4.25;;;;;;;;;;6265055;22;20004;-63
2022/01/20 11:58:54;;;;;;;9.23;3.97;;;;;;;;;;6262523;22;20077;-63
2022/01/20 12:01:20;;;;;;;9.07;3.78;;;;;;;;;;6260596;22;20434;-63
2022/01/20 12:03:51;;;;;;;6.68;3.65;;;;;;;;;;6260177;22;20010;-63
2022/01/20 12:06:23;;;;;;;8.50;3.50;;;;;;;;;;6262943;22;20004;-64
2022/01/20 12:09:07;;;;;;;8.68;4.45;;;;;;;;;;6258354;22;20012;-63
2022/01/20 12:11:37;;;;;;;16.33;5.13;;;;;;;;;;6264235;22;20012;-63
2022/01/20 12:14:06;;;;;;;13.55;6.43;;;;;;;;;;6261041;22;20007;-64
2022/01/20 12:16:32;;;;;;;11.13;5.07;;;;;;;;;;6261659;22;20050;-64
2022/01/20 12:18:59;;;;;;;10.05;4.32;;;;;;;;;;6261854;22;20011;-63
2022/01/20 12:21:25;;;;;;;15.07;4.90;;;;;;;;;;6261612;22;20004;-64
2022/01/20 12:23:52;;;;;;;10.70;5.15;;;;;;;;;;6262880;22;20429;-65
2022/01/20 12:26:19;;;;;;;9.07;4.53;;;;;;;;;;6260711;22;20027;-64
2022/01/20 12:28:45;;;;;;;10.55;4.80;;;;;;;;;;6262962;22;20008;-64
2022/01/20 12:31:14;;;;;;;10.85;5.35;;;;;;;;;;6261892;22;20030;-64
2022/01/20 12:33:47;;;;;;;13.10;5.82;;;;;;;;;;6263346;22;20020;-64
2022/01/20 12:36:14;;;;;;;11.00;5.75;;;;;;;;;;6261052;22;20012;-64
2022/01/20 12:38:41;;;;;;;10.57;5.70;;;;;;;;;;6262047;22;20085;-63
2022/01/20 12:41:17;;;;;;;14.73;7.35;;;;;;;;;;6262158;22;20000;-65
2022/01/20 12:43:47;;;;;;;15.82;6.03;;;;;;;;;;6260852;22;20057;-64
2022/01/20 12:46:14;;;;;;;13.30;5.20;;;;;;;;;;6261994;22;20007;-64
2022/01/20 12:48:59;;;;;;;9.85;4.90;;;;;;;;;;6261251;22;20839;-64
2022/01/20 12:51:32;;;;;;;9.93;4.65;;;;;;;;;;6259132;22;20007;-64
2022/01/20 12:54:28;;;;;;;11.30;4.85;;;;;;;;;;6254788;22;20010;-65
2022/01/20 12:56:55;;;;;;;11.15;5.80;;;;;;;;;;6236791;22;20012;-63
2022/01/20 12:59:32;;;;;;;10.63;5.25;;;;;;;;;;6258066;22;20474;-64
2022/01/20 13:02:02;;;;;;;7.30;4.82;;;;;;;;;;6254971;22;20010;-63
2022/01/20 13:04:30;;;;;;;10.52;4.63;;;;;;;;;;6256261;22;20063;-63
2022/01/20 13:07:02;;;;;;;14.52;6.60;;;;;;;;;;6257230;22;20572;-63
2022/01/20 13:09:42;;;;;;;14.18;6.78;;;;;;;;;;6259332;22;20057;-65
2022/01/20 13:12:09;;;;;;;14.93;6.78;;;;;;;;;;6261114;22;20008;-64
2022/01/20 13:14:40;;;;;;;16.52;6.45;;;;;;;;;;6261683;22;20003;-64
2022/01/20 13:17:07;;;;;;;13.98;5.30;;;;;;;;;;6260928;22;20011;-64
2022/01/20 13:19:37;;;;;;;10.02;4.03;;;;;;;;;;6263165;22;20008;-63
2022/01/20 13:22:06;;;;;;;11.35;5.32;;;;;;;;;;6263925;22;20087;-63
2022/01/20 13:24:33;;;;;;;7.72;4.32;;;;;;;;;;6263713;22;20498;-63
2022/01/20 13:26:59;;;;;;;10.23;4.65;;;;;;;;;;6263422;22;20107;-64
2022/01/20 13:29:27;;;;;;;12.23;4.95;;;;;;;;;;6263004;22;20010;-63
2022/01/20 13:31:57;;;;;;;11.50;4.13;;;;;;;;;;6263346;22;20337;-63
2022/01/20 13:34:24;;;;;;;12.52;5.15;;;;;;;;;;6261456;22;20077;-63
2022/01/20 13:36:52;;;;;;;6.95;4.43;;;;;;;;;;6233753;22;20011;-64
2022/01/20 13:39:35;;;;;;;10.45;4.88;;;;;;;;;;6262033;22;20049;-64
2022/01/20 13:42:06;;;;;;;8.05;4.28;;;;;;;;;;6263216;22;20004;-65
2022/01/20 13:47:17;;;;;;;7.13;3.75;;;;;;;;;;6260880;22;20788;-63
2022/01/20 13:49:53;;;;;;;10.90;3.72;;;;;;;;;;6260154;22;20018;-63
2022/01/20 13:52:20;;;;;;;10.27;3.92;;;;;;;;;;6259667;22;20083;-63
2022/01/20 13:54:46;;;;;;;11.65;4.30;;;;;;;;;;6259583;22;20004;-63
2022/01/20 13:57:13;;;;;;;15.93;4.32;;;;;;;;;;6260773;22;20394;-63
2022/01/20 13:59:49;;;;;;;10.93;4.32;;;;;;;;;;6258986;22;20028;-63
2022/01/20 14:02:15;;;;;;;15.50;6.53;;;;;;;;;;6259431;22;20000;-64
2022/01/20 14:04:41;;;;;;;14.65;5.55;;;;;;;;;;6261211;22;20000;-63
2022/01/20 14:07:08;;;;;;;12.55;5.82;;;;;;;;;;6260563;22;20090;-65
2022/01/20 14:09:34;;;;;;;9.43;4.72;;;;;;;;;;6262313;22;20061;-64
2022/01/20 14:12:00;;;;;;;10.13;4.45;;;;;;;;;;6266641;22;20510;-65
2022/01/20 14:14:26;;;;;;;11.93;4.75;;;;;;;;;;6265844;22;20008;-64
2022/01/20 14:16:53;;;;;;;12.65;4.30;;;;;;;;;;6265767;22;20011;-67
2022/01/20 14:19:23;;;;;;;9.05;4.15;;;;;;;;;;6267557;22;19999;-64
2022/01/20 14:21:50;;;;;;;11.85;5.35;;;;;;;;;;6266182;22;20010;-64
2022/01/20 14:24:16;;;;;;;10.85;4.88;;;;;;;;;;6265854;22;20000;-64
2022/01/20 14:26:44;;;;;;;10.73;4.68;;;;;;;;;;6266121;22;20008;-63
2022/01/20 14:29:13;;;;;;;14.50;5.05;;;;;;;;;;6265906;22;20434;-63
2022/01/20 14:31:39;;;;;;;9.02;4.47;;;;;;;;;;6265717;22;20061;-63
2022/01/20 14:34:05;;;;;;;14.55;4.55;;;;;;;;;;6266522;22;20031;-64
2022/01/20 14:36:32;;;;;;;15.25;5.45;;;;;;;;;;6266583;22;20061;-64
2022/01/20 14:38:58;;;;;;;12.13;3.95;;;;;;;;;;6265989;22;20571;-64
2022/01/20 14:41:24;;;;;;;12.60;3.50;;;;;;;;;;6265519;22;20465;-63
2022/01/20 14:43:50;;;;;;;12.15;3.10;;;;;;;;;;6266256;22;19995;-65
2022/01/20 14:46:16;;;;;;;9.18;2.97;;;;;;;;;;6265333;22;20011;-65
2022/01/20 14:48:42;;;;;;;9.35;3.65;;;;;;;;;;6264132;22;20004;-63
2022/01/20 14:51:08;;;;;;;9.13;4.20;;;;;;;;;;6266195;22;20004;-64
2022/01/20 14:53:35;;;;;;;9.77;6.03;;;;;;;;;;6266487;22;20003;-64
2022/01/20 14:56:01;;;;;;;11.52;4.38;;;;;;;;;;6265272;22;20031;-64
2022/01/20 14:58:27;;;;;;;7.25;3.05;;;;;;;;;;6267131;22;20004;-64
2022/01/20 15:00:53;;;;;;;8.38;3.05;;;;;;;;;;6266315;22;20031;-64
2022/01/20 15:03:19;;;;;;;7.75;3.83;;;;;;;;;;6266692;22;20004;-64
2022/01/20 15:05:47;;;;;;;11.15;3.97;;;;;;;;;;6266833;22;20062;-64
2022/01/20 15:08:13;;;;;;;8.43;4.00;;;;;;;;;;6264030;22;20069;-63
2022/01/20 15:10:39;;;;;;;12.27;4.15;;;;;;;;;;6259763;22;20011;-66
2022/01/20 15:13:05;;;;;;;12.50;4.40;;;;;;;;;;6258789;22;20008;-64
2022/01/20 15:15:31;;;;;;;6.55;3.63;;;;;;;;;;6262553;22;20336;-64
2022/01/20 15:17:58;;;;;;;6.90;4.15;;;;;;;;;;6263315;22;20011;-65
2022/01/20 15:20:24;;;;;;;15.43;4.32;;;;;;;;;;6265252;22;20004;-64
2022/01/20 15:22:50;;;;;;;7.15;2.95;;;;;;;;;;6264410;22;20073;-65
2022/01/20 15:25:16;;;;;;;7.30;2.45;;;;;;;;;;6266568;22;20000;-64
2022/01/20 15:27:42;;;;;;;10.25;2.75;;;;;;;;;;6265460;22;20201;-64
2022/01/20 15:30:09;;;;;;;12.20;5.10;;;;;;;;;;6267049;22;20330;-65
2022/01/20 15:32:35;;;;;;;11.95;4.47;;;;;;;;;;6265192;22;20514;-64
2022/01/20 15:35:01;;;;;;;15.80;5.25;;;;;;;;;;6266662;22;20047;-64
2022/01/20 15:37:27;;;;;;;13.80;4.60;;;;;;;;;;6264029;22;20011;-65
2022/01/20 15:39:53;;;;;;;13.32;6.57;;;;;;;;;;6263147;22;20003;-65
2022/01/20 15:42:19;;;;;;;12.40;6.20;;;;;;;;;;6266288;22;20031;-65
2022/01/20 15:44:45;;;;;;;11.48;6.20;;;;;;;;;;6267398;22;20007;-65
2022/01/20 15:47:11;;;;;;;14.60;5.93;;;;;;;;;;6265635;22;20010;-65
2022/01/20 15:49:38;;;;;;;17.15;5.63;;;;;;;;;;6266768;22;20560;-65